Time;durP1;ratioP1;P1;durP2;ratioP2;P2;SDS_P1;SDS_P2;PMS_P1;PMS_P2;Temp;Humidity;BMP_temperature;BMP_pressure;BME280_temperature;BME280_humidity;BME280_pressure;Samples;Min_cycle;Max_cycle;Signal;HPM_P1;HPM_P2
2022/09/02 00:01:34;;;;;;;3.22;1.77;;;;;;;;;;5076387;28;20041;-78
2022/09/02 00:04:00;;;;;;;;;;;;;;;;;;5067587;28;20056;-79
2022/09/02 00:06:26;;;;;;;2.67;1.77;;;;;;;;;;5079904;28;19924;-77
2022/09/02 00:08:52;;;;;;;5.40;1.90;;;;;;;;;;5084832;28;20036;-78
2022/09/02 00:25:26;;;;;;;2.35;1.40;;;;;;;;;;5060884;28;20160;-78
2022/09/02 00:27:54;;;;;;;2.40;1.30;;;;;;;;;;5048122;28;20714;-78
2022/09/02 00:30:21;;;;;;;3.92;1.95;;;;;;;;;;5062712;28;20037;-77
2022/09/02 00:32:47;;;;;;;2.42;1.83;;;;;;;;;;5057090;28;20562;-77
2022/09/02 00:40:31;;;;;;;3.50;1.30;;;;;;;;;;5056458;28;20036;-77
2022/09/02 00:42:58;;;;;;;3.42;1.50;;;;;;;;;;5065342;28;20617;-78
2022/09/02 00:45:24;;;;;;;2.95;1.70;;;;;;;;;;5068039;28;20141;-78
2022/09/02 00:47:50;;;;;;;3.10;1.67;;;;;;;;;;5051004;28;20576;-78
2022/09/02 00:50:18;;;;;;;5.15;2.15;;;;;;;;;;5067391;28;20032;-77
2022/09/02 00:52:47;;;;;;;3.33;2.00;;;;;;;;;;5048900;28;20172;-77
2022/09/02 00:55:16;;;;;;;2.35;1.38;;;;;;;;;;5050025;28;20059;-77
2022/09/02 00:57:55;;;;;;;3.67;1.52;;;;;;;;;;5046060;28;20037;-78
2022/09/02 01:00:33;;;;;;;4.60;1.95;;;;;;;;;;5068801;28;20051;-78
2022/09/02 01:03:01;;;;;;;2.15;1.25;;;;;;;;;;5050350;28;20072;-79
2022/09/02 01:05:28;;;;;;;2.08;1.20;;;;;;;;;;5069220;28;20047;-78
2022/09/02 01:07:55;;;;;;;3.45;1.67;;;;;;;;;;5071017;28;20043;-79
2022/09/02 01:10:24;;;;;;;1.85;1.25;;;;;;;;;;5032561;28;20045;-79
2022/09/02 01:12:54;;;;;;;3.03;1.45;;;;;;;;;;5068013;28;20074;-78
2022/09/02 01:15:20;;;;;;;2.28;1.40;;;;;;;;;;5057566;28;20083;-79
2022/09/02 01:17:48;;;;;;;1.90;1.40;;;;;;;;;;5042795;28;20041;-78
2022/09/02 01:20:16;;;;;;;2.05;1.33;;;;;;;;;;5067393;28;20178;-78
2022/09/02 01:22:44;;;;;;;2.65;1.55;;;;;;;;;;5066589;28;20052;-78
2022/09/02 01:25:15;;;;;;;4.25;1.80;;;;;;;;;;5070943;28;20058;-78
2022/09/02 01:27:42;;;;;;;1.67;1.20;;;;;;;;;;5054481;28;20127;-78
2022/09/02 01:30:10;;;;;;;2.22;1.27;;;;;;;;;;5090292;28;20399;-78
2022/09/02 01:32:36;;;;;;;2.47;1.52;;;;;;;;;;5075364;28;20051;-79
2022/09/02 01:35:02;;;;;;;7.85;1.45;;;;;;;;;;5092301;28;20043;-79
2022/09/02 01:37:28;;;;;;;2.80;1.30;;;;;;;;;;5100880;28;20064;-79
2022/09/02 01:39:56;;;;;;;3.22;1.70;;;;;;;;;;5090518;28;20051;-78
2022/09/02 01:42:22;;;;;;;2.47;1.40;;;;;;;;;;5071814;28;20071;-79
2022/09/02 01:44:48;;;;;;;3.38;1.60;;;;;;;;;;5116955;28;20071;-79
2022/09/02 01:47:15;;;;;;;2.20;1.65;;;;;;;;;;5094652;27;20039;-79
2022/09/02 01:49:42;;;;;;;2.17;1.30;;;;;;;;;;5107333;28;20398;-79
2022/09/02 01:52:08;;;;;;;2.85;1.50;;;;;;;;;;5104978;27;20552;-79
2022/09/02 01:54:34;;;;;;;2.65;1.30;;;;;;;;;;5105553;27;20066;-79
2022/09/02 01:57:01;;;;;;;1.55;1.25;;;;;;;;;;5101290;28;20401;-80
2022/09/02 01:59:27;;;;;;;3.95;1.40;;;;;;;;;;5099043;28;20052;-79
2022/09/02 02:01:53;;;;;;;5.47;1.60;;;;;;;;;;5082215;28;20089;-79
2022/09/02 02:04:21;;;;;;;2.38;1.25;;;;;;;;;;5073237;28;20040;-79
2022/09/02 02:06:47;;;;;;;2.17;1.30;;;;;;;;;;5116250;27;20397;-79
2022/09/02 02:09:15;;;;;;;2.67;1.38;;;;;;;;;;5112967;27;20047;-80
2022/09/02 02:11:42;;;;;;;3.38;1.85;;;;;;;;;;5090801;28;20043;-80
2022/09/02 02:14:08;;;;;;;4.20;1.85;;;;;;;;;;5096488;27;20440;-80
2022/09/02 02:16:35;;;;;;;2.78;1.35;;;;;;;;;;5102910;27;20043;-80
2022/09/02 02:19:01;;;;;;;3.30;1.35;;;;;;;;;;5096964;27;20517;-80
2022/09/02 02:21:27;;;;;;;3.17;1.10;;;;;;;;;;5088670;28;20106;-80
2022/09/02 02:23:53;;;;;;;3.03;2.00;;;;;;;;;;5090298;28;20081;-80
2022/09/02 02:26:20;;;;;;;3.10;1.83;;;;;;;;;;5112605;27;20379;-79
2022/09/02 02:28:46;;;;;;;2.78;1.83;;;;;;;;;;5079417;27;20401;-80
2022/09/02 02:31:12;;;;;;;1.77;1.30;;;;;;;;;;5089743;27;20043;-80
2022/09/02 02:33:38;;;;;;;3.40;1.85;;;;;;;;;;5098399;28;20502;-79
2022/09/02 02:36:05;;;;;;;1.98;1.25;;;;;;;;;;5073449;27;20473;-79
2022/09/02 02:38:33;;;;;;;2.90;1.35;;;;;;;;;;5094303;27;20126;-80
2022/09/02 02:41:00;;;;;;;2.33;1.45;;;;;;;;;;5096151;28;20048;-80
2022/09/02 02:43:27;;;;;;;2.55;1.52;;;;;;;;;;5115482;27;20516;-79
2022/09/02 02:45:53;;;;;;;4.57;1.73;;;;;;;;;;5080869;28;20110;-80
2022/09/02 02:48:20;;;;;;;2.60;1.50;;;;;;;;;;5112313;27;20118;-79
2022/09/02 02:50:46;;;;;;;2.30;1.30;;;;;;;;;;5111218;27;20039;-79
2022/09/02 02:53:12;;;;;;;3.50;1.30;;;;;;;;;;5094076;27;20044;-78
2022/09/02 02:55:39;;;;;;;2.65;1.60;;;;;;;;;;5096445;28;20119;-79
2022/09/02 02:58:05;;;;;;;3.20;1.83;;;;;;;;;;5112637;27;20054;-79
2022/09/02 03:00:32;;;;;;;2.28;1.77;;;;;;;;;;5070685;28;20044;-78
2022/09/02 03:03:00;;;;;;;1.77;1.33;;;;;;;;;;5089822;28;20039;-78
2022/09/02 03:05:27;;;;;;;2.88;1.55;;;;;;;;;;5095260;27;20071;-77
2022/09/02 03:07:54;;;;;;;5.00;1.77;;;;;;;;;;5110985;27;20066;-77
2022/09/02 03:10:21;;;;;;;6.43;1.40;;;;;;;;;;5076434;27;20127;-76
2022/09/02 03:12:47;;;;;;;2.17;1.55;;;;;;;;;;5099773;27;20116;-77
2022/09/02 03:15:15;;;;;;;3.20;1.42;;;;;;;;;;5107742;27;20043;-77
2022/09/02 03:17:46;;;;;;;1.88;1.40;;;21.20;99.90;;;;;;5097618;27;20054;-77
2022/09/02 03:20:14;;;;;;;2.88;1.63;;;15.40;95.30;;;;;;5092754;28;20525;-77
2022/09/02 03:22:42;;;;;;;1.20;1.10;;;15.10;95.50;;;;;;5085707;27;20181;-78
2022/09/02 03:25:11;;;;;;;2.10;1.67;;;15.10;95.50;;;;;;5096189;28;20051;-78
2022/09/02 03:27:38;;;;;;;4.50;1.90;;;15.10;95.50;;;;;;5090649;27;20051;-78
2022/09/02 03:30:07;;;;;;;3.40;1.80;;;15.10;95.50;;;;;;5087995;28;20066;-78
2022/09/02 03:32:33;;;;;;;2.65;1.73;;;15.10;95.50;;;;;;5080799;27;20065;-77
2022/09/02 03:35:00;;;;;;;3.55;1.85;;;15.10;95.50;;;;;;5096448;28;20039;-78
2022/09/02 03:37:27;;;;;;;3.65;1.42;;;15.10;95.50;;;;;;5084737;28;20123;-78
2022/09/02 03:39:52;;;;;;;2.00;1.42;;;15.10;95.50;;;;;;5101961;27;20052;-78
2022/09/02 03:42:18;;;;;;;2.83;1.50;;;15.10;95.50;;;;;;5091491;28;20040;-78
2022/09/02 03:44:44;;;;;;;3.97;1.45;;;15.10;95.50;;;;;;5115619;27;20031;-78
2022/09/02 03:47:12;;;;;;;3.38;1.63;;;15.10;95.60;;;;;;5106690;27;20573;-76
2022/09/02 03:49:38;;;;;;;3.47;1.60;;;15.10;95.60;;;;;;5110962;27;20043;-77
2022/09/02 03:52:05;;;;;;;9.27;2.65;;;;;;;;;;5091780;28;20116;-77
2022/09/02 03:54:31;;;;;;;4.78;1.90;;;;;;;;;;5091280;27;20093;-77
2022/09/02 03:56:57;;;;;;;2.83;1.98;;;;;;;;;;5117258;27;20042;-76
2022/09/02 03:59:23;;;;;;;1.88;1.23;;;;;;;;;;5111812;27;20036;-77
2022/09/02 04:01:50;;;;;;;2.10;1.45;;;15.10;95.60;;;;;;5109646;27;20071;-77
2022/09/02 04:04:18;;;;;;;3.72;1.73;;;14.90;95.50;;;;;;5112276;27;20117;-78
2022/09/02 04:06:44;;;;;;;2.80;1.58;;;14.90;95.80;;;;;;5115212;27;20040;-77
2022/09/02 04:09:10;;;;;;;2.58;1.30;;;14.90;95.80;;;;;;5087798;27;20036;-77
2022/09/02 04:11:41;;;;;;;2.40;1.73;;;14.90;95.80;;;;;;5106509;27;20111;-77
2022/09/02 04:14:08;;;;;;;3.20;1.30;;;14.90;95.80;;;;;;5116895;27;20110;-77
2022/09/02 04:16:34;;;;;;;8.82;2.20;;;14.90;95.80;;;;;;5112490;27;20555;-78
2022/09/02 04:19:01;;;;;;;4.78;1.77;;;14.90;95.80;;;;;;5090393;28;20089;-78
2022/09/02 04:21:30;;;;;;;3.97;1.65;;;14.80;95.80;;;;;;5090934;28;20119;-77
2022/09/02 04:23:56;;;;;;;2.45;1.40;;;14.80;95.80;;;;;;5072416;28;20449;-78
2022/09/02 04:26:22;;;;;;;4.22;1.58;;;14.70;95.90;;;;;;5077203;28;20048;-77
2022/09/02 04:28:48;;;;;;;2.58;1.80;;;;;;;;;;5071632;28;20134;-77
2022/09/02 04:31:16;;;;;;;3.25;1.90;;;;;;;;;;5095517;28;20401;-78
2022/09/02 04:33:44;;;;;;;2.72;1.48;;;;;;;;;;5094124;28;20474;-78
2022/09/02 04:36:11;;;;;;;2.78;1.60;;;;;;;;;;5094542;28;20067;-78
2022/09/02 04:38:38;;;;;;;2.92;1.85;;;;;;;;;;5094166;28;20515;-77
2022/09/02 04:41:08;;;;;;;2.78;1.75;;;;;;;;;;5095311;28;20043;-78
2022/09/02 04:43:35;;;;;;;3.67;1.70;;;;;;;;;;5098983;28;20043;-77
2022/09/02 04:46:03;;;;;;;2.95;1.38;;;;;;;;;;5100596;28;20043;-77
2022/09/02 04:48:29;;;;;;;2.72;1.55;;;;;;;;;;5069064;28;20043;-78
2022/09/02 04:50:56;;;;;;;2.95;2.08;;;;;;;;;;5084561;28;20125;-77
2022/09/02 04:53:22;;;;;;;4.20;1.70;;;;;;;;;;5102577;28;20089;-77
2022/09/02 04:55:48;;;;;;;2.30;1.60;;;;;;;;;;5107229;28;20036;-78
2022/09/02 04:58:15;;;;;;;5.50;2.33;;;;;;;;;;5085750;28;20040;-78
2022/09/02 05:00:41;;;;;;;4.10;2.40;;;;;;;;;;5099090;28;20051;-77
2022/09/02 05:03:10;;;;;;;3.97;1.60;;;;;;;;;;5070014;28;20527;-77
2022/09/02 05:05:38;;;;;;;2.05;1.60;;;;;;;;;;5103067;28;20383;-77
2022/09/02 05:08:04;;;;;;;6.82;2.65;;;;;;;;;;5071019;28;20043;-78
2022/09/02 05:10:31;;;;;;;3.35;1.92;;;;;;;;;;5089731;28;20114;-77
2022/09/02 05:12:58;;;;;;;2.85;1.60;;;;;;;;;;5103533;28;20035;-78
2022/09/02 05:15:25;;;;;;;4.03;1.92;;;;;;;;;;5103815;28;20293;-76
2022/09/02 05:17:52;;;;;;;4.18;2.22;;;;;;;;;;5104687;28;20089;-78
2022/09/02 05:20:18;;;;;;;3.05;1.90;;;;;;;;;;5105678;28;20093;-77
2022/09/02 05:22:45;;;;;;;3.03;1.52;;;;;;;;;;5088016;28;20047;-78
2022/09/02 05:25:11;;;;;;;3.78;1.63;;;;;;;;;;5110482;28;20047;-77
2022/09/02 05:27:37;;;;;;;4.53;2.00;;;;;;;;;;5088675;28;20075;-77
2022/09/02 05:30:04;;;;;;;2.80;1.98;;;;;;;;;;5094911;28;20105;-77
2022/09/02 05:32:31;;;;;;;3.63;1.65;;;;;;;;;;5095254;28;20052;-77
2022/09/02 05:34:57;;;;;;;3.55;1.60;;;;;;;;;;5090286;28;20522;-77
2022/09/02 05:37:24;;;;;;;6.72;2.22;;;;;;;;;;5110810;28;20562;-77
2022/09/02 05:39:50;;;;;;;2.35;1.77;;;;;;;;;;5089584;28;20048;-77
2022/09/02 05:42:18;;;;;;;2.50;1.85;;;;;;;;;;5098923;28;20035;-78
2022/09/02 05:44:44;;;;;;;6.50;1.98;;;;;;;;;;5095257;28;20499;-77
2022/09/02 05:47:11;;;;;;;3.53;2.38;;;;;;;;;;5088656;28;20549;-77
2022/09/02 05:49:37;;;;;;;4.20;1.83;;;;;;;;;;5107588;28;20046;-77
2022/09/02 05:52:04;;;;;;;4.38;1.73;;;;;;;;;;5103854;28;20516;-77
2022/09/02 05:54:31;;;;;;;3.42;1.73;;;;;;;;;;5105873;28;20399;-77
2022/09/02 05:56:59;;;;;;;4.00;1.70;;;;;;;;;;5084220;28;20040;-77
2022/09/02 05:59:26;;;;;;;5.32;2.05;;;;;;;;;;5103593;27;20095;-77
2022/09/02 06:01:53;;;;;;;3.10;1.80;;;;;;;;;;5104927;28;20047;-77
2022/09/02 06:04:21;;;;;;;5.47;1.95;;;;;;;;;;5108611;28;20098;-76
2022/09/02 06:06:47;;;;;;;5.70;2.65;;;;;;;;;;5093958;28;20084;-77
2022/09/02 06:09:15;;;;;;;4.57;1.80;;;;;;;;;;5082283;28;20059;-77
2022/09/02 06:11:48;;;;;;;6.85;1.80;;;;;;;;;;5102744;28;20040;-77
2022/09/02 06:14:20;;;;;;;3.30;2.05;;;;;;;;;;5079376;28;20394;-76
2022/09/02 06:16:47;;;;;;;5.88;1.77;;;;;;;;;;5079858;28;20490;-77
2022/09/02 06:19:13;;;;;;;3.47;1.58;;;;;;;;;;5071886;28;20047;-76
2022/09/02 06:21:41;;;;;;;5.80;2.00;;;;;;;;;;5098694;28;20081;-76
2022/09/02 06:24:08;;;;;;;4.28;2.08;;;;;;;;;;5081000;28;20048;-76
2022/09/02 06:26:35;;;;;;;3.58;1.58;;;;;;;;;;5076928;28;20052;-76
2022/09/02 06:29:01;;;;;;;2.05;1.52;;;;;;;;;;5105810;28;20509;-77
2022/09/02 06:31:28;;;;;;;2.67;1.65;;;;;;;;;;5107402;28;20168;-77
2022/09/02 06:33:55;;;;;;;4.45;1.65;;;;;;;;;;5082038;28;20093;-77
2022/09/02 06:36:22;;;;;;;2.45;1.42;;;;;;;;;;5093674;28;20048;-77
2022/09/02 06:38:50;;;;;;;4.32;1.40;;;;;;;;;;5087810;28;20046;-77
2022/09/02 06:41:18;;;;;;;5.78;1.67;;;;;;;;;;5105465;28;20044;-77
2022/09/02 06:43:45;;;;;;;2.80;1.70;;;;;;;;;;5108942;28;20386;-76
2022/09/02 06:46:23;;;;;;;2.88;1.73;;;;;;;;;;5104664;28;20039;-77
2022/09/02 06:48:49;;;;;;;5.72;2.17;;;;;;;;;;5100654;28;20122;-77
2022/09/02 06:51:16;;;;;;;3.90;1.90;;;;;;;;;;5104790;28;20126;-77
2022/09/02 06:53:42;;;;;;;2.70;1.98;;;;;;;;;;5068444;28;20090;-77
2022/09/02 06:56:09;;;;;;;3.92;2.08;;;;;;;;;;5107449;28;20038;-77
2022/09/02 06:58:35;;;;;;;3.97;2.53;;;;;;;;;;5114304;27;20400;-76
2022/09/02 07:01:02;;;;;;;2.15;1.38;;;;;;;;;;5110610;28;20125;-76
2022/09/02 07:06:13;;;;;;;2.33;1.55;;;;;;;;;;5109745;27;20040;-76
2022/09/02 07:08:40;;;;;;;2.08;1.50;;;;;;;;;;5105371;27;20036;-77
2022/09/02 07:11:07;;;;;;;2.78;1.80;;;;;;;;;;5095439;28;20039;-77
2022/09/02 07:13:34;;;;;;;3.42;2.08;;;;;;;;;;5110936;27;20136;-76
2022/09/02 07:16:01;;;;;;;3.72;1.92;;;;;;;;;;5110508;27;20043;-77
2022/09/02 07:18:27;;;;;;;2.78;1.65;;;;;;;;;;5091567;28;20106;-77
2022/09/02 07:20:54;;;;;;;3.95;1.80;;;;;;;;;;5118569;27;20043;-77
2022/09/02 07:23:20;;;;;;;5.85;2.05;;;;;;;;;;5113501;27;20055;-76
2022/09/02 07:25:47;;;;;;;2.58;1.83;;;;;;;;;;5113544;27;20475;-77
2022/09/02 07:28:13;;;;;;;3.25;2.15;;;;;;;;;;5104645;27;20036;-77
2022/09/02 07:30:43;;;;;;;5.75;2.38;;;;;;;;;;5112695;27;20047;-77
2022/09/02 07:33:13;;;;;;;8.07;2.08;;;;;;;;;;5099718;27;20041;-77
2022/09/02 07:35:42;;;;;;;2.65;1.75;;;;;;;;;;5099195;27;20131;-77
2022/09/02 07:38:10;;;;;;;4.03;2.20;;;;;;;;;;5111019;27;20065;-78
2022/09/02 07:40:37;;;;;;;4.97;1.85;;;;;;;;;;5086346;28;20043;-76
2022/09/02 07:43:04;;;;;;;3.58;1.92;;;;;;;;;;5095724;27;20390;-77
2022/09/02 07:45:30;;;;;;;3.25;1.63;;;;;;;;;;5089230;28;20478;-77
2022/09/02 07:47:57;;;;;;;5.95;1.75;;;;;;;;;;5095031;27;20031;-77
2022/09/02 07:50:25;;;;;;;3.03;1.95;;;;;;;;;;5096536;28;20055;-77
2022/09/02 07:52:55;;;;;;;7.53;2.40;;;;;;;;;;5071094;28;20048;-78
2022/09/02 07:55:22;;;;;;;4.13;1.83;;;;;;;;;;5112520;27;20036;-77
2022/09/02 07:57:50;;;;;;;4.03;1.83;;;;;;;;;;5107414;27;20403;-77
2022/09/02 08:00:18;;;;;;;3.15;1.67;;;;;;;;;;5099318;27;20092;-76
2022/09/02 08:02:45;;;;;;;3.75;1.92;;;;;;;;;;5077308;28;20405;-76
2022/09/02 08:05:12;;;;;;;3.65;1.48;;;;;;;;;;5092434;27;20486;-76
2022/09/02 08:07:38;;;;;;;4.63;1.80;;;;;;;;;;5094654;28;20040;-76
2022/09/02 08:10:08;;;;;;;4.13;2.45;;;;;;;;;;5089148;28;20065;-77
2022/09/02 08:12:34;;;;;;;3.08;1.75;;;;;;;;;;5091257;28;20402;-76
2022/09/02 08:15:01;;;;;;;3.38;1.60;;;;;;;;;;5111348;27;20062;-76
2022/09/02 08:17:27;;;;;;;2.90;1.38;;;;;;;;;;5065853;27;20043;-77
2022/09/02 08:19:53;;;;;;;5.20;1.80;;;;;;;;;;5095851;28;20273;-76
2022/09/02 08:22:19;;;;;;;2.78;1.42;;;;;;;;;;5085075;27;20047;-76
2022/09/02 08:24:45;;;;;;;3.55;1.70;;;;;;;;;;5111353;27;20524;-76
2022/09/02 08:27:11;;;;;;;2.88;1.52;;;;;;;;;;5110094;27;20478;-77
2022/09/02 08:29:37;;;;;;;3.55;1.65;;;;;;;;;;5097360;28;20043;-77
2022/09/02 08:32:04;;;;;;;4.43;2.15;;;;;;;;;;5115475;27;20046;-77
2022/09/02 08:34:30;;;;;;;1.73;1.45;;;;;;;;;;5129751;27;20035;-76
2022/09/02 08:36:56;;;;;;;4.43;1.42;;;;;;;;;;5115047;28;20040;-76
2022/09/02 08:39:23;;;;;;;3.60;1.58;;;;;;;;;;5112964;28;20104;-76
2022/09/02 08:41:49;;;;;;;3.47;1.70;;;;;;;;;;5119786;27;20040;-76
2022/09/02 08:44:20;;;;;;;3.45;1.40;;;;;;;;;;5075511;28;20043;-76
2022/09/02 08:46:47;;;;;;;3.78;1.70;;;;;;;;;;5105683;28;20079;-77
2022/09/02 08:49:24;;;;;;;3.00;1.20;;;;;;;;;;5099437;28;20118;-76
2022/09/02 08:51:55;;;;;;;2.80;1.58;;;;;;;;;;5087490;28;20048;-76
2022/09/02 08:54:25;;;;;;;2.22;1.48;;;;;;;;;;5090052;28;20044;-77
2022/09/02 08:56:51;;;;;;;2.67;1.30;;;;;;;;;;5111585;28;20043;-76
2022/09/02 08:59:21;;;;;;;4.22;1.55;;;;;;;;;;5115181;28;20118;-74
2022/09/02 09:01:50;;;;;;;4.75;1.60;;;;;;;;;;5116855;27;20039;-76
2022/09/02 09:04:16;;;;;;;7.07;1.67;;;;;;;;;;5109696;28;20095;-77
2022/09/02 09:07:01;;;;;;;4.32;1.42;;;;;;;;;;5101901;28;20046;-77
2022/09/02 09:09:58;;;;;;;3.80;1.73;;;;;;;;;;5111155;28;20043;-77
2022/09/02 09:12:40;;;;;;;4.13;1.38;;;;;;;;;;5082843;27;20054;-75
2022/09/02 09:15:12;;;;;;;3.83;1.55;;;;;;;;;;5091892;28;20114;-75
2022/09/02 09:17:46;;;;;;;4.22;1.33;;;;;;;;;;5100192;28;20049;-76
2022/09/02 09:20:21;;;;;;;3.00;1.30;;;;;;;;;;5089763;28;20047;-76
2022/09/02 09:22:49;;;;;;;1.92;1.30;;;;;;;;;;5087914;28;20500;-76
2022/09/02 09:25:16;;;;;;;5.38;1.27;;;;;;;;;;5113289;28;20112;-75
2022/09/02 09:27:46;;;;;;;6.28;1.35;;;;;;;;;;5101403;28;20047;-74
2022/09/02 09:30:12;;;;;;;2.85;1.60;;;;;;;;;;5105111;28;20040;-75
2022/09/02 09:32:56;;;;;;;2.28;1.42;;;;;;;;;;5087116;28;20047;-74
2022/09/02 09:35:23;;;;;;;3.65;1.45;;;;;;;;;;5109574;28;20052;-76
2022/09/02 09:37:52;;;;;;;3.83;1.40;;;;;;;;;;5092692;28;20042;-75
2022/09/02 09:40:24;;;;;;;3.85;1.35;;;;;;;;;;5113785;28;20120;-75
2022/09/02 09:43:00;;;;;;;1.65;1.15;;;;;;;;;;5104624;27;20123;-73
2022/09/02 09:45:28;;;;;;;3.53;1.10;;;;;;;;;;5086823;28;20088;-74
2022/09/02 09:48:12;;;;;;;3.90;1.65;;;;;;;;;;5092409;28;20092;-73
2022/09/02 09:50:38;;;;;;;5.22;1.45;;;;;;;;;;5090398;28;20035;-73
2022/09/02 09:53:15;;;;;;;3.45;1.48;;;;;;;;;;5108301;28;20122;-73
2022/09/02 09:56:10;;;;;;;5.63;1.20;;;;;;;;;;5076390;28;20043;-73
2022/09/02 09:58:40;;;;;;;1.63;1.02;;;;;;;;;;5075008;28;20059;-73
2022/09/02 10:01:21;;;;;;;3.53;1.52;;;;;;;;;;5084713;28;20048;-73
2022/09/02 10:03:49;;;;;;;3.50;1.90;;;;;;;;;;5110065;28;20035;-73
2022/09/02 10:06:20;;;;;;;1.48;1.10;;;;;;;;;;5090016;28;20048;-73
2022/09/02 10:08:56;;;;;;;1.80;1.33;;;;;;;;;;5098168;28;20043;-73
2022/09/02 10:11:33;;;;;;;2.60;1.02;;;;;;;;;;5107376;28;20056;-72
2022/09/02 10:14:02;;;;;;;2.40;1.35;;;;;;;;;;5109047;28;20032;-72
2022/09/02 10:16:36;;;;;;;4.80;1.27;;;;;;;;;;5103698;28;20080;-73
2022/09/02 10:19:08;;;;;;;3.15;1.10;;;;;;;;;;5100953;28;20055;-73
2022/09/02 10:21:48;;;;;;;5.78;1.05;;;;;;;;;;5110799;28;20048;-73
2022/09/02 10:24:26;;;;;;;2.60;1.23;;;;;;;;;;5075881;28;20091;-73
2022/09/02 10:26:55;;;;;;;5.88;0.98;;;;;;;;;;5090601;28;20564;-73
2022/09/02 10:29:27;;;;;;;3.88;1.20;;;;;;;;;;5088800;28;20130;-72
2022/09/02 10:32:17;;;;;;;4.07;0.90;;;;;;;;;;5111452;28;20193;-72
2022/09/02 10:34:54;;;;;;;2.35;1.00;;;;;;;;;;5055568;28;20043;-72
2022/09/02 10:37:22;;;;;;;1.05;0.70;;;;;;;;;;5108480;28;20036;-72
2022/09/02 10:40:04;;;;;;;4.13;1.02;;;;;;;;;;5106525;28;20407;-73
2022/09/02 10:42:44;;;;;;;1.85;1.00;;;;;;;;;;5088471;28;20109;-73
2022/09/02 10:45:19;;;;;;;2.83;1.25;;;;;;;;;;5091001;28;20039;-73
2022/09/02 10:48:05;;;;;;;1.75;1.23;;;;;;;;;;5111821;28;20031;-73
2022/09/02 10:50:53;;;;;;;1.48;0.93;;;;;;;;;;5043579;28;20052;-73
2022/09/02 10:53:25;;;;;;;3.72;1.25;;;;;;;;;;5104075;28;20032;-73
2022/09/02 10:56:03;;;;;;;5.03;1.33;;;;;;;;;;5111289;28;20119;-73
2022/09/02 10:58:35;;;;;;;3.05;1.08;;;;;;;;;;5105636;28;20040;-72
2022/09/02 11:01:02;;;;;;;3.53;1.30;;;;;;;;;;5106726;28;20039;-73
2022/09/02 11:03:28;;;;;;;5.18;1.10;;;;;;;;;;5087236;27;20051;-72
2022/09/02 11:06:07;;;;;;;2.25;0.98;;;;;;;;;;5091706;28;20185;-72
2022/09/02 11:08:49;;;;;;;3.75;0.80;;;;;;;;;;5109109;27;20039;-73
2022/09/02 11:11:30;;;;;;;3.33;1.70;;;;;;;;;;5109243;28;20035;-73
2022/09/02 11:14:01;;;;;;;2.28;1.10;;;;;;;;;;5109705;28;20565;-72
2022/09/02 11:16:27;;;;;;;3.05;1.13;;;;;;;;;;5103841;28;20036;-72
2022/09/02 11:19:10;;;;;;;2.58;1.40;;;;;;;;;;5093133;28;20039;-72
2022/09/02 11:21:36;;;;;;;4.32;1.27;;;;;;;;;;5106129;28;20046;-73
2022/09/02 11:24:12;;;;;;;2.40;1.08;;;;;;;;;;5085909;28;20165;-73
2022/09/02 11:26:53;;;;;;;3.00;1.17;;;;;;;;;;5100793;28;20516;-73
2022/09/02 11:29:28;;;;;;;3.30;1.20;;;;;;;;;;5087697;28;20122;-73
2022/09/02 11:31:57;;;;;;;3.15;2.47;;;;;;;;;;5073048;28;20044;-73
2022/09/02 11:34:35;;;;;;;2.03;1.10;;;;;;;;;;5096173;28;20568;-73
2022/09/02 11:37:03;;;;;;;5.70;1.23;;;;;;;;;;5080254;28;20039;-73
2022/09/02 11:39:36;;;;;;;3.00;1.10;;;;;;;;;;5081764;28;20571;-73
2022/09/02 11:42:21;;;;;;;4.15;1.33;;;;;;;;;;5086704;28;20035;-74
2022/09/02 11:44:59;;;;;;;6.25;1.30;;;;;;;;;;5074159;28;20461;-73
2022/09/02 11:47:25;;;;;;;3.30;1.05;;;;;;;;;;5098142;28;20461;-73
2022/09/02 11:50:13;;;;;;;2.65;1.08;;;;;;;;;;5095789;28;20028;-72
2022/09/02 11:52:51;;;;;;;3.92;1.40;;;;;;;;;;5090496;28;20048;-73
2022/09/02 11:55:23;;;;;;;3.88;1.35;;;;;;;;;;5092644;28;20071;-72
2022/09/02 11:57:56;;;;;;;4.95;1.10;;;;;;;;;;5077848;28;20045;-73
2022/09/02 12:00:22;;;;;;;;;;;;;;;;;;5097374;28;20562;-72
2022/09/02 12:02:55;;;;;;;1.77;0.93;;;;;;;;;;5091284;28;19915;-73
2022/09/02 12:05:30;;;;;;;2.35;1.02;;;;;;;;;;5105963;28;20483;-73
2022/09/02 12:08:03;;;;;;;3.78;1.30;;;;;;;;;;5074607;28;20040;-72
2022/09/02 12:10:38;;;;;;;8.20;1.58;;;;;;;;;;5082768;28;20036;-72
2022/09/02 12:13:06;;;;;;;5.05;1.15;;;;;;;;;;5091825;28;20082;-72
2022/09/02 12:15:37;;;;;;;4.38;1.20;;;;;;;;;;5080597;28;20051;-72
2022/09/02 12:18:03;;;;;;;2.95;1.17;;;;;;;;;;5077942;28;20072;-72
2022/09/02 12:20:40;;;;;;;2.40;1.30;;;;;;;;;;5084001;28;20044;-72
2022/09/02 12:23:10;;;;;;;1.95;1.00;;;;;;;;;;5096799;28;20071;-72
2022/09/02 12:25:47;;;;;;;2.63;1.33;;;;;;;;;;5103957;28;20547;-73
2022/09/02 12:28:13;;;;;;;5.20;1.40;;;;;;;;;;5108611;28;20362;-72
2022/09/02 12:31:00;;;;;;;3.70;1.20;;;;;;;;;;5111461;28;20051;-72
2022/09/02 12:33:33;;;;;;;3.78;1.30;;;;;;;;;;5076043;28;20390;-70
2022/09/02 12:36:00;;;;;;;5.38;1.13;;;;;;;;;;5086101;28;20063;-70
2022/09/02 12:38:29;;;;;;;2.28;1.42;;;;;;;;;;5083336;28;20047;-69
2022/09/02 12:41:04;;;;;;;4.78;1.77;;;;;;;;;;5084551;28;20618;-71
2022/09/02 12:44:09;;;;;;;11.13;2.85;;;;;;;;;;5092189;28;20383;-69
2022/09/02 12:46:44;;;;;;;4.82;1.30;;;;;;;;;;5009500;28;20294;-69
2022/09/02 12:49:16;;;;;;;6.15;1.33;;;;;;;;;;5000412;28;20109;-68
2022/09/02 12:51:51;;;;;;;1.73;1.05;;;;;;;;;;5066092;28;20515;-69
2022/09/02 12:54:18;;;;;;;3.20;1.38;;;;;;;;;;5087978;28;20087;-71
2022/09/02 12:56:49;;;;;;;3.65;1.08;;;;;;;;;;5088945;28;20073;-69
2022/09/02 12:59:30;;;;;;;3.72;0.98;;;;;;;;;;5106403;28;20042;-70
2022/09/02 13:01:59;;;;;;;6.20;1.20;;;;;;;;;;5092115;28;20046;-68
2022/09/02 13:04:31;;;;;;;4.07;1.00;;;;;;;;;;5103779;28;20040;-70
2022/09/02 13:07:09;;;;;;;3.97;1.55;;;;;;;;;;5107999;28;20098;-69
2022/09/02 13:09:44;;;;;;;6.45;1.48;;;;;;;;;;5111834;28;20472;-70
2022/09/02 13:12:19;;;;;;;5.45;1.20;;;;;;;;;;5113677;28;20497;-72
2022/09/02 13:15:02;;;;;;;4.35;1.52;;;;;;;;;;5103066;28;20393;-72
2022/09/02 13:17:30;;;;;;;;;;;;;;;;;;5108479;28;20077;-71
2022/09/02 13:20:18;;;;;;;3.83;1.15;;;;;;;;;;5112255;28;19920;-71
2022/09/02 13:23:03;;;;;;;4.00;1.13;;;;;;;;;;5109171;28;20043;-71
2022/09/02 13:26:08;;;;;;;3.72;1.40;;;;;;;;;;5106266;28;20546;-70
2022/09/02 13:28:49;;;;;;;2.92;1.13;;;;;;;;;;5025632;28;20038;-70
2022/09/02 13:31:20;;;;;;;3.92;1.08;;;;;;;;;;5009246;28;20045;-71
2022/09/02 13:33:47;;;;;;;2.47;1.20;;;;;;;;;;5075832;28;20054;-71
2022/09/02 13:36:22;;;;;;;3.05;1.20;;;;;;;;;;5090632;28;20036;-71
2022/09/02 13:38:48;;;;;;;3.38;1.15;;;;;;;;;;5109992;28;20039;-71
2022/09/02 13:41:27;;;;;;;4.43;1.30;;;;;;;;;;5107484;28;20075;-71
2022/09/02 13:44:10;;;;;;;4.50;1.20;;;;;;;;;;5085066;28;20433;-71
2022/09/02 13:46:47;;;;;;;2.67;0.90;;;;;;;;;;5102504;28;20050;-71
2022/09/02 13:49:24;;;;;;;4.47;1.13;;;;;;;;;;5092957;27;20383;-71
2022/09/02 13:51:52;;;;;;;3.00;1.20;;;;;;;;;;5116230;27;20398;-72
2022/09/02 13:54:37;;;;;;;2.17;1.08;;;;;;;;;;5091977;28;20031;-71
2022/09/02 13:57:05;;;;;;;2.50;1.13;;;;;;;;;;5089361;28;20051;-71
2022/09/02 13:59:46;;;;;;;2.90;1.00;;;;;;;;;;5104966;27;20394;-70
2022/09/02 14:02:15;;;;;;;5.68;1.20;;;;;;;;;;5087812;28;20101;-67
2022/09/02 14:04:42;;;;;;;3.17;1.30;;;;;;;;;;5108437;28;20036;-69
2022/09/02 14:07:08;;;;;;;4.88;1.33;;;;;;;;;;5093904;28;20035;-71
2022/09/02 14:09:36;;;;;;;2.78;1.15;;;;;;;;;;5088398;28;20055;-70
2022/09/02 14:12:03;;;;;;;6.40;1.48;;;;;;;;;;5102034;28;20497;-70
2022/09/02 14:14:30;;;;;;;4.07;1.27;;;;;;;;;;5078892;28;20055;-70
2022/09/02 14:17:15;;;;;;;2.40;1.10;;;;;;;;;;5098451;28;20410;-69
2022/09/02 14:19:41;;;;;;;3.88;1.48;;;;;;;;;;5082034;28;20047;-70
2022/09/02 14:22:18;;;;;;;4.97;1.35;;;;;;;;;;5100950;27;20479;-70
2022/09/02 14:24:45;;;;;;;4.60;1.27;;;;;;;;;;5088092;28;20048;-71
2022/09/02 14:27:18;;;;;;;2.28;0.95;;;;;;;;;;5085894;28;20314;-70
2022/09/02 14:29:45;;;;;;;1.70;1.10;;;;;;;;;;5096842;28;20038;-70
2022/09/02 14:32:14;;;;;;;4.03;1.52;;;;;;;;;;5099873;28;20145;-71
2022/09/02 14:34:44;;;;;;;3.60;1.30;;;;;;;;;;5071920;28;20383;-70
2022/09/02 14:37:17;;;;;;;3.58;1.00;;;;;;;;;;5099853;28;20097;-70
2022/09/02 14:39:52;;;;;;;4.47;1.65;;;;;;;;;;5097717;28;20040;-70
2022/09/02 14:42:18;;;;;;;4.65;1.70;;;;;;;;;;5102023;28;20039;-71
2022/09/02 14:44:46;;;;;;;1.77;1.33;;;;;;;;;;5103673;28;20279;-72
2022/09/02 14:47:14;;;;;;;1.77;1.40;;;;;;;;;;5106872;28;20035;-71
2022/09/02 14:49:47;;;;;;;3.50;1.35;;;;;;;;;;5111680;28;20085;-71
2022/09/02 14:52:18;;;;;;;2.47;1.30;;;;;;;;;;5105049;28;20114;-72
2022/09/02 14:54:47;;;;;;;2.50;1.70;;;;;;;;;;5089423;28;20086;-72
2022/09/02 14:57:27;;;;;;;4.38;1.48;;;;;;;;;;5091600;28;20590;-72
2022/09/02 14:59:54;;;;;;;3.88;1.35;;;;;;;;;;5087765;28;20043;-72
2022/09/02 15:02:26;;;;;;;3.20;1.85;;;;;;;;;;5109469;28;20046;-70
2022/09/02 15:04:57;;;;;;;2.22;1.25;;;;;;;;;;5100336;28;20046;-71
2022/09/02 15:07:23;;;;;;;5.32;1.50;;;;;;;;;;5110726;28;20032;-71
2022/09/02 15:09:51;;;;;;;5.38;1.20;;;;;;;;;;5087654;28;20050;-71
2022/09/02 15:12:28;;;;;;;2.03;1.30;;;;;;;;;;5093303;28;20051;-72
2022/09/02 15:14:55;;;;;;;6.38;2.30;;;;;;;;;;5113650;28;20119;-71